createdAt,value
2019-01-29T00:02:26.815Z,15.83
2019-01-29T00:04:57.372Z,14.30
2019-01-29T00:07:27.648Z,14.80
2019-01-29T00:09:58.267Z,14.50
2019-01-29T00:12:28.768Z,14.47
2019-01-29T00:14:59.178Z,14.10
2019-01-29T00:17:29.632Z,16.07
2019-01-29T00:20:00.257Z,15.37
2019-01-29T00:22:33.463Z,12.97
2019-01-29T00:25:02.839Z,15.57
2019-01-29T00:27:33.137Z,14.27
2019-01-29T00:30:03.964Z,14.70
2019-01-29T00:32:35.403Z,15.10
2019-01-29T00:35:05.988Z,13.97
2019-01-29T00:37:36.316Z,13.33
2019-01-29T00:40:07.499Z,15.13
2019-01-29T00:42:38.104Z,13.47
2019-01-29T00:45:11.874Z,15.33
2019-01-29T00:47:42.422Z,11.70
2019-01-29T00:50:13.353Z,13.93
2019-01-29T00:52:43.998Z,14.90
2019-01-29T00:55:14.666Z,14.43
2019-01-29T00:57:45.054Z,14.20
2019-01-29T01:00:19.122Z,13.13
2019-01-29T01:02:49.423Z,11.97
2019-01-29T01:05:20.372Z,13.13
2019-01-29T01:07:50.778Z,12.57
2019-01-29T01:10:21.847Z,13.80
2019-01-29T01:12:52.313Z,13.20
2019-01-29T01:15:22.654Z,15.07
2019-01-29T01:17:53.242Z,14.10
2019-01-29T01:20:23.833Z,13.63
2019-01-29T01:22:54.239Z,12.83
2019-01-29T01:25:24.645Z,13.57
2019-01-29T01:27:55.114Z,14.03
2019-01-29T01:30:25.563Z,13.47
2019-01-29T01:32:55.933Z,13.67
2019-01-29T01:35:26.252Z,11.67
2019-01-29T01:37:56.952Z,14.30
2019-01-29T01:40:27.354Z,13.73
2019-01-29T01:42:57.714Z,13.03
2019-01-29T01:45:28.042Z,13.47
2019-01-29T01:47:58.537Z,14.43
2019-01-29T01:50:29.043Z,14.00
2019-01-29T01:52:59.682Z,13.57
2019-01-29T01:55:31.245Z,11.80
2019-01-29T01:58:01.758Z,11.23
2019-01-29T02:00:32.184Z,10.07
2019-01-29T02:03:02.517Z,13.13
2019-01-29T02:05:32.959Z,12.90
2019-01-29T02:08:05.030Z,10.93
2019-01-29T02:10:35.380Z,12.93
2019-01-29T02:13:05.907Z,13.03
2019-01-29T02:15:36.243Z,12.07
2019-01-29T02:18:06.672Z,11.27
2019-01-29T02:20:37.234Z,12.30
2019-01-29T02:23:08.417Z,12.40
2019-01-29T02:25:38.823Z,12.80
2019-01-29T02:28:09.413Z,11.23
2019-01-29T02:30:40.814Z,12.10
2019-01-29T02:33:11.100Z,11.97
2019-01-29T02:35:41.573Z,11.23
2019-01-29T02:38:11.918Z,12.70
2019-01-29T02:40:42.390Z,15.77
2019-01-29T02:43:12.781Z,12.17
2019-01-29T02:45:43.228Z,12.37
2019-01-29T02:48:13.649Z,13.10
2019-01-29T02:50:44.138Z,12.87
2019-01-29T02:53:18.401Z,11.67
2019-01-29T02:55:46.954Z,10.67
2019-01-29T02:58:17.267Z,10.87
2019-01-29T03:00:47.617Z,11.13
2019-01-29T03:03:17.943Z,11.47
2019-01-29T03:05:48.491Z,10.70
2019-01-29T03:08:18.879Z,11.60
2019-01-29T03:10:49.468Z,11.80
2019-01-29T03:13:20.014Z,10.77
2019-01-29T03:15:51.346Z,11.30
2019-01-29T03:18:21.789Z,11.47
2019-01-29T03:20:52.268Z,10.17
2019-01-29T03:23:27.667Z,11.30
2019-01-29T03:25:54.893Z,8.67
2019-01-29T03:28:25.409Z,9.87
2019-01-29T03:30:55.756Z,9.50
2019-01-29T03:33:26.311Z,9.17
2019-01-29T03:35:56.819Z,9.33
2019-01-29T03:38:27.171Z,9.17
2019-01-29T03:40:57.585Z,9.23
2019-01-29T03:43:27.893Z,9.00
2019-01-29T03:46:17.314Z,9.47
2019-01-29T03:48:47.747Z,8.50
2019-01-29T03:51:18.035Z,8.87
2019-01-29T03:53:48.382Z,8.70
2019-01-29T03:56:19.060Z,8.83
2019-01-29T03:58:49.658Z,10.70
2019-01-29T04:01:20.019Z,10.97
2019-01-29T04:03:50.501Z,11.10
2019-01-29T04:06:20.779Z,9.97
2019-01-29T04:08:51.279Z,9.87
2019-01-29T04:11:21.688Z,9.33
2019-01-29T04:13:52.165Z,9.97
2019-01-29T04:16:22.553Z,11.73
2019-01-29T04:18:52.901Z,11.20
2019-01-29T04:21:26.160Z,11.87
2019-01-29T04:23:56.558Z,12.90
2019-01-29T04:26:26.890Z,11.63
2019-01-29T04:28:57.435Z,13.23
2019-01-29T04:31:46.905Z,13.33
2019-01-29T04:34:17.244Z,12.33
2019-01-29T04:36:47.584Z,13.60
2019-01-29T04:39:17.888Z,12.30
2019-01-29T04:41:48.276Z,12.97
2019-01-29T04:44:18.685Z,11.43
2019-01-29T04:46:49.316Z,10.80
2019-01-29T04:49:19.627Z,10.53
2019-01-29T04:51:50.285Z,10.90
2019-01-29T04:54:20.725Z,10.50
2019-01-29T04:56:51.300Z,11.57
2019-01-29T04:59:21.665Z,8.63
2019-01-29T05:01:52.115Z,9.17
2019-01-29T05:04:22.431Z,9.53
2019-01-29T05:06:52.941Z,7.83
2019-01-29T05:09:25.884Z,9.27
2019-01-29T05:11:56.695Z,8.17
2019-01-29T05:14:27.286Z,8.40
2019-01-29T05:16:57.748Z,7.87
2019-01-29T05:19:28.210Z,8.10
2019-01-29T05:21:58.674Z,7.77
2019-01-29T05:24:29.155Z,7.43
2019-01-29T05:26:59.806Z,7.10
2019-01-29T05:29:30.296Z,7.87
2019-01-29T05:32:00.706Z,9.17
2019-01-29T05:34:31.385Z,8.37
2019-01-29T05:37:02.216Z,8.23
2019-01-29T05:39:32.916Z,8.93
2019-01-29T05:42:03.455Z,8.30
2019-01-29T05:44:34.116Z,8.33
2019-01-29T05:47:04.851Z,8.70
2019-01-29T05:49:35.322Z,7.37
2019-01-29T05:52:05.737Z,8.13
2019-01-29T05:54:36.606Z,8.80
2019-01-29T05:57:07.372Z,8.87
2019-01-29T05:59:37.951Z,8.93
2019-01-29T06:02:08.489Z,8.67
2019-01-29T06:04:38.950Z,9.50
2019-01-29T06:07:09.565Z,9.17
2019-01-29T06:09:40.162Z,11.70
2019-01-29T06:12:10.556Z,9.40
2019-01-29T06:14:41.014Z,9.67
2019-01-29T06:17:11.640Z,9.60
2019-01-29T06:19:42.144Z,8.57
2019-01-29T06:22:12.755Z,9.17
2019-01-29T06:24:43.416Z,8.03
2019-01-29T06:27:13.945Z,7.13
2019-01-29T06:29:44.706Z,7.50
2019-01-29T06:32:15.282Z,9.27
2019-01-29T06:34:45.770Z,7.83
2019-01-29T06:37:16.389Z,8.27
2019-01-29T06:39:47.232Z,8.47
2019-01-29T06:42:17.870Z,8.20
2019-01-29T06:44:49.120Z,7.90
2019-01-29T06:47:19.976Z,8.83
2019-01-29T06:49:50.520Z,9.53
2019-01-29T06:52:21.079Z,9.87
2019-01-29T06:54:51.882Z,10.63
2019-01-29T06:57:22.406Z,12.23
2019-01-29T06:59:53.130Z,10.63
2019-01-29T07:02:23.915Z,11.57
2019-01-29T07:04:54.601Z,11.77
2019-01-29T07:07:25.245Z,12.47
2019-01-29T07:09:56.052Z,12.97
2019-01-29T07:12:26.643Z,12.50
2019-01-29T07:14:57.136Z,16.07
2019-01-29T07:17:32.742Z,13.37
2019-01-29T07:20:06.059Z,13.50
2019-01-29T07:22:36.950Z,13.33
2019-01-29T07:25:09.018Z,13.30
2019-01-29T07:27:39.536Z,13.40
2019-01-29T07:30:13.651Z,11.70
2019-01-29T07:32:44.682Z,13.57
2019-01-29T07:35:15.280Z,13.90
2019-01-29T07:37:45.767Z,14.70
2019-01-29T07:40:16.643Z,14.33
2019-01-29T07:42:47.201Z,16.03
2019-01-29T07:45:18.380Z,15.03
2019-01-29T07:47:49.026Z,15.67
2019-01-29T07:50:19.768Z,17.27
2019-01-29T07:52:50.306Z,16.20
2019-01-29T07:55:20.912Z,17.07
2019-01-29T07:57:51.886Z,15.10
2019-01-29T08:00:22.402Z,16.90
2019-01-29T08:02:53.111Z,16.67
2019-01-29T08:05:23.751Z,18.17
2019-01-29T08:07:54.887Z,18.10
2019-01-29T08:10:25.523Z,19.13
2019-01-29T08:12:56.680Z,18.43
2019-01-29T08:15:27.657Z,21.10
2019-01-29T08:17:58.147Z,19.40
2019-01-29T08:20:29.031Z,18.83
2019-01-29T08:22:59.681Z,19.70
2019-01-29T08:25:30.196Z,19.20
2019-01-29T08:28:00.952Z,18.17
2019-01-29T08:30:31.632Z,17.63
2019-01-29T08:33:02.437Z,18.83
2019-01-29T08:35:33.049Z,18.53
2019-01-29T08:38:04.042Z,18.20
2019-01-29T08:40:34.701Z,18.17
2019-01-29T08:43:05.637Z,17.23
2019-01-29T08:45:36.391Z,17.63
2019-01-29T08:48:07.177Z,15.67
2019-01-29T08:50:37.783Z,16.40
2019-01-29T08:53:08.368Z,15.80
2019-01-29T08:55:39.116Z,15.43
2019-01-29T08:58:11.549Z,15.63
2019-01-29T09:00:42.360Z,16.27
2019-01-29T09:03:13.362Z,14.87
2019-01-29T09:05:44.531Z,15.10
2019-01-29T09:08:15.243Z,14.93
2019-01-29T09:10:51.521Z,16.07
2019-01-29T09:13:25.955Z,17.03
2019-01-29T09:15:57.721Z,15.93
2019-01-29T09:18:28.370Z,15.70
2019-01-29T09:20:58.861Z,16.37
2019-01-29T09:23:29.302Z,16.87
2019-01-29T09:26:01.288Z,16.10
2019-01-29T09:28:31.908Z,15.50
2019-01-29T09:31:02.450Z,19.00
2019-01-29T09:33:33.174Z,19.27
2019-01-29T09:36:06.218Z,17.67
2019-01-29T09:38:36.826Z,18.93
2019-01-29T09:41:07.593Z,20.13
2019-01-29T09:43:38.679Z,19.50
2019-01-29T09:46:12.091Z,19.73
2019-01-29T09:48:51.821Z,19.00
2019-01-29T09:51:35.018Z,19.13
2019-01-29T09:54:13.668Z,19.83
2019-01-29T09:56:44.433Z,18.87
2019-01-29T09:59:15.137Z,18.37
2019-01-29T10:01:45.779Z,17.97
2019-01-29T10:04:16.348Z,19.23
2019-01-29T10:06:46.937Z,19.70
2019-01-29T10:09:17.686Z,20.37
2019-01-29T10:11:48.301Z,17.63
2019-01-29T10:14:19.046Z,20.47
2019-01-29T10:16:50.184Z,18.40
2019-01-29T10:19:21.051Z,18.20
2019-01-29T10:21:51.519Z,20.30
2019-01-29T10:24:22.313Z,19.37
2019-01-29T10:26:53.369Z,19.07
2019-01-29T10:29:24.531Z,19.83
2019-01-29T10:31:56.763Z,21.33
2019-01-29T10:34:27.399Z,20.43
2019-01-29T10:36:59.928Z,19.67
2019-01-29T10:39:30.910Z,21.43
2019-01-29T10:42:01.504Z,20.50
2019-01-29T10:44:34.196Z,18.53
2019-01-29T10:47:05.018Z,18.97
2019-01-29T10:49:47.517Z,19.10
2019-01-29T10:52:18.468Z,18.27
2019-01-29T10:54:49.584Z,19.93
2019-01-29T10:57:21.191Z,17.10
2019-01-29T10:59:53.802Z,18.97
2019-01-29T11:02:24.803Z,20.53
2019-01-29T11:04:55.651Z,21.63
2019-01-29T11:07:26.857Z,20.57
2019-01-29T11:09:57.352Z,22.03
2019-01-29T11:12:28.572Z,22.77
2019-01-29T11:14:59.407Z,22.37
2019-01-29T11:17:29.982Z,22.27
2019-01-29T11:20:03.613Z,20.60
2019-01-29T11:22:35.471Z,22.47
2019-01-29T11:25:09.025Z,20.60
2019-01-29T11:27:40.343Z,20.47
2019-01-29T11:30:30.249Z,21.70
2019-01-29T11:33:01.551Z,21.87
2019-01-29T11:35:32.655Z,23.60
2019-01-29T11:38:04.456Z,25.63
2019-01-29T11:40:35.383Z,25.87
2019-01-29T11:43:09.482Z,28.57
2019-01-29T11:45:46.375Z,27.17
2019-01-29T11:48:17.203Z,26.37
2019-01-29T11:50:48.146Z,26.73
2019-01-29T11:53:18.808Z,25.77
2019-01-29T11:55:51.840Z,26.97
2019-01-29T11:58:22.538Z,26.50
2019-01-29T12:01:12.309Z,27.47
2019-01-29T12:03:43.237Z,29.13
2019-01-29T12:06:13.883Z,28.40
2019-01-29T12:08:44.762Z,27.23
2019-01-29T12:11:15.974Z,29.33
2019-01-29T12:13:46.796Z,26.30
2019-01-29T12:16:19.528Z,28.30
2019-01-29T12:18:51.928Z,29.23
2019-01-29T12:21:22.737Z,29.20
2019-01-29T12:23:53.375Z,27.10
2019-01-29T12:26:24.169Z,27.03
2019-01-29T12:28:56.173Z,26.20
2019-01-29T12:31:27.100Z,27.23
2019-01-29T12:33:59.353Z,24.63
2019-01-29T12:36:30.077Z,25.10
2019-01-29T12:39:01.310Z,23.33
2019-01-29T12:41:32.603Z,22.80
2019-01-29T12:44:03.088Z,19.63
2019-01-29T12:46:35.318Z,18.70
2019-01-29T12:49:06.512Z,19.93
2019-01-29T12:51:45.399Z,19.50
2019-01-29T12:54:16.047Z,20.47
2019-01-29T12:56:47.054Z,18.97
2019-01-29T12:59:18.137Z,19.57
2019-01-29T13:01:48.739Z,18.33
2019-01-29T13:04:20.360Z,19.37
2019-01-29T13:06:51.446Z,20.27
2019-01-29T13:09:22.180Z,18.53
2019-01-29T13:11:53.348Z,19.03
2019-01-29T13:14:24.022Z,18.50
2019-01-29T13:16:56.005Z,21.20
2019-01-29T13:19:26.863Z,19.70
2019-01-29T13:21:59.020Z,20.90
2019-01-29T13:24:29.703Z,20.20
2019-01-29T13:27:00.418Z,20.97
2019-01-29T13:29:33.359Z,19.67
2019-01-29T13:32:07.419Z,20.07
2019-01-29T13:34:38.344Z,19.97
2019-01-29T13:37:09.143Z,18.70
2019-01-29T13:39:41.329Z,19.50
2019-01-29T13:42:14.879Z,19.83
2019-01-29T13:44:48.102Z,22.17
2019-01-29T13:47:20.914Z,23.17
2019-01-29T13:49:51.761Z,23.77
2019-01-29T13:52:27.544Z,21.07
2019-01-29T13:54:58.273Z,21.97
2019-01-29T13:57:29.354Z,21.77
2019-01-29T14:00:00.577Z,21.97
2019-01-29T14:02:31.370Z,22.67
2019-01-29T14:05:02.485Z,23.03
2019-01-29T14:08:36.314Z,22.73
2019-01-29T14:10:24.203Z,19.77
2019-01-29T14:12:55.250Z,19.37
2019-01-29T14:15:32.833Z,20.23
2019-01-29T14:18:03.680Z,21.00
2019-01-29T14:20:34.426Z,17.40
2019-01-29T14:23:08.362Z,16.67
2019-01-29T14:25:38.999Z,17.07
2019-01-29T14:28:10.219Z,17.27
2019-01-29T14:30:41.297Z,18.93
2019-01-29T14:33:12.085Z,16.60
2019-01-29T14:35:43.065Z,18.10
2019-01-29T14:38:51.858Z,17.23
2019-01-29T14:41:23.246Z,17.37
2019-01-29T14:43:56.290Z,17.50
2019-01-29T14:46:27.035Z,16.20
2019-01-29T14:48:58.210Z,16.50
2019-01-29T14:51:36.659Z,17.77
2019-01-29T14:54:07.388Z,16.70
2019-01-29T14:56:37.911Z,16.10
2019-01-29T14:59:08.650Z,15.10
2019-01-29T15:01:39.356Z,15.50
2019-01-29T15:04:10.159Z,14.77
2019-01-29T15:06:40.648Z,15.27
2019-01-29T15:09:14.164Z,14.67
2019-01-29T15:11:45.603Z,13.67
2019-01-29T15:14:16.326Z,14.33
2019-01-29T15:17:05.920Z,14.80
2019-01-29T15:19:37.111Z,14.13
2019-01-29T15:22:07.786Z,14.60
2019-01-29T15:24:38.294Z,16.30
2019-01-29T15:27:10.500Z,13.73
2019-01-29T15:29:44.719Z,15.13
2019-01-29T15:32:18.126Z,16.37
2019-01-29T15:34:48.930Z,16.17
2019-01-29T15:37:19.868Z,15.87
2019-01-29T15:39:51.033Z,16.27
2019-01-29T15:42:21.964Z,16.50
2019-01-29T15:44:52.505Z,17.50
2019-01-29T15:47:23.235Z,17.53
2019-01-29T15:49:55.421Z,18.13
2019-01-29T15:52:26.034Z,18.00
2019-01-29T15:54:59.779Z,17.20
2019-01-29T15:57:35.394Z,16.83
2019-01-29T16:00:09.890Z,16.40
2019-01-29T16:02:41.091Z,15.60
2019-01-29T16:05:14.770Z,16.30
2019-01-29T16:07:45.605Z,16.87
2019-01-29T16:10:22.094Z,16.27
2019-01-29T16:12:57.715Z,16.93
2019-01-29T16:15:29.927Z,16.00
2019-01-29T16:18:02.618Z,22.87
2019-01-29T16:20:33.461Z,18.67
2019-01-29T16:23:05.011Z,18.03
2019-01-29T16:25:36.031Z,18.03
2019-01-29T16:28:12.015Z,15.67
2019-01-29T16:30:41.196Z,17.13
2019-01-29T16:33:15.618Z,16.27
2019-01-29T16:35:51.739Z,17.17
2019-01-29T16:38:26.333Z,15.40
2019-01-29T16:41:01.571Z,16.87
2019-01-29T16:43:32.671Z,17.37
2019-01-29T16:46:03.671Z,15.77
2019-01-29T16:48:36.171Z,16.40
2019-01-29T16:51:20.761Z,16.90
2019-01-29T16:54:37.657Z,15.73
2019-01-29T16:57:12.489Z,16.73
2019-01-29T16:59:47.589Z,15.20
2019-01-29T17:02:19.892Z,13.77
2019-01-29T17:04:54.538Z,14.83
2019-01-29T17:07:27.451Z,14.37
2019-01-29T17:10:02.676Z,15.93
2019-01-29T17:12:33.821Z,13.73
2019-01-29T17:15:09.114Z,13.47
2019-01-29T17:17:47.245Z,13.23
2019-01-29T17:20:24.981Z,12.23
2019-01-29T17:22:56.317Z,13.57
2019-01-29T17:25:27.430Z,12.40
2019-01-29T17:27:59.646Z,12.57
2019-01-29T17:30:35.955Z,12.03
2019-01-29T17:33:08.231Z,11.27
2019-01-29T17:35:43.151Z,11.73
2019-01-29T17:38:15.967Z,12.93
2019-01-29T17:40:47.637Z,11.57
2019-01-29T17:43:18.425Z,11.67
2019-01-29T17:45:50.003Z,12.80
2019-01-29T17:48:20.924Z,13.20
2019-01-29T17:50:52.272Z,12.33
2019-01-29T17:53:23.171Z,14.87
2019-01-29T17:55:57.518Z,14.33
2019-01-29T17:58:28.240Z,13.97
2019-01-29T18:01:02.555Z,12.43
2019-01-29T18:03:36.382Z,12.10
2019-01-29T18:06:07.082Z,12.97
2019-01-29T18:08:38.596Z,13.50
2019-01-29T18:11:09.085Z,12.63
2019-01-29T18:13:39.752Z,13.23
2019-01-29T18:16:10.958Z,13.70
2019-01-29T18:18:44.270Z,12.83
2019-01-29T18:21:17.175Z,14.17
2019-01-29T18:23:47.993Z,13.67
2019-01-29T18:26:18.818Z,13.87
2019-01-29T18:28:55.108Z,14.30
2019-01-29T18:31:26.296Z,17.65
2019-01-29T18:33:57.229Z,13.87
2019-01-29T18:36:27.970Z,14.57
2019-01-29T18:38:58.770Z,12.50
2019-01-29T18:41:30.026Z,13.97
2019-01-29T18:44:02.237Z,13.30
2019-01-29T18:46:33.562Z,13.57
2019-01-29T18:49:05.260Z,12.60
2019-01-29T18:51:36.704Z,12.93
2019-01-29T18:54:07.828Z,11.77
2019-01-29T18:56:40.690Z,13.07
2019-01-29T18:59:11.853Z,12.43
2019-01-29T19:01:50.527Z,11.77
2019-01-29T19:04:21.681Z,12.60
2019-01-29T19:06:52.512Z,12.47
2019-01-29T19:09:23.667Z,13.70
2019-01-29T19:11:54.335Z,12.27
2019-01-29T19:14:24.954Z,12.07
2019-01-29T19:16:56.473Z,13.17
2019-01-29T19:19:27.283Z,12.60
2019-01-29T19:21:57.904Z,12.17
2019-01-29T19:24:29.080Z,12.27
2019-01-29T19:27:01.275Z,13.40
2019-01-29T19:29:32.564Z,12.50
2019-01-29T19:32:04.330Z,11.87
2019-01-29T19:34:36.108Z,13.27
2019-01-29T19:37:10.236Z,12.87
2019-01-29T19:40:01.924Z,12.80
2019-01-29T19:42:35.728Z,12.53
2019-01-29T19:45:09.916Z,12.10
2019-01-29T19:47:41.793Z,12.33
2019-01-29T19:50:16.811Z,11.33
2019-01-29T19:52:47.648Z,12.73
2019-01-29T19:55:18.732Z,12.53
2019-01-29T19:57:49.634Z,12.27
2019-01-29T20:00:23.501Z,12.50
2019-01-29T20:02:57.024Z,11.57
2019-01-29T20:05:28.009Z,11.53
2019-01-29T20:07:58.927Z,12.40
2019-01-29T20:10:31.371Z,12.37
2019-01-29T20:13:02.425Z,11.83
2019-01-29T20:15:38.229Z,11.23
2019-01-29T20:18:09.942Z,11.60
2019-01-29T20:20:41.743Z,11.93
2019-01-29T20:23:12.546Z,11.97
2019-01-29T20:25:43.517Z,11.23
2019-01-29T20:28:14.676Z,11.50
2019-01-29T20:30:46.498Z,12.23
2019-01-29T20:33:17.294Z,12.00
2019-01-29T20:35:48.102Z,11.83
2019-01-29T20:41:09.572Z,11.47
2019-01-29T20:43:42.402Z,11.63
2019-01-29T20:46:13.176Z,11.50
2019-01-29T20:48:43.842Z,11.30
2019-01-29T20:51:15.778Z,11.83
2019-01-29T20:53:46.702Z,10.53
2019-01-29T20:56:17.367Z,11.97
2019-01-29T20:58:52.753Z,10.33
2019-01-29T21:01:24.108Z,10.90
2019-01-29T21:03:54.860Z,11.77
2019-01-29T21:06:25.587Z,11.17
2019-01-29T21:08:56.047Z,11.63
2019-01-29T21:11:26.593Z,12.23
2019-01-29T21:13:57.158Z,11.60
2019-01-29T21:16:28.032Z,11.47
2019-01-29T21:18:58.457Z,11.63
2019-01-29T21:21:29.767Z,11.33
2019-01-29T21:24:00.663Z,11.63
2019-01-29T21:26:31.484Z,13.33
2019-01-29T21:29:03.251Z,12.73
2019-01-29T21:31:33.894Z,12.13
2019-01-29T21:34:04.583Z,12.67
2019-01-29T21:36:35.337Z,13.13
2019-01-29T21:39:09.492Z,13.17
2019-01-29T21:41:50.107Z,13.33
2019-01-29T21:44:26.586Z,15.60
2019-01-29T21:46:57.467Z,15.07
2019-01-29T21:49:27.983Z,15.80
2019-01-29T21:51:58.547Z,20.75
2019-01-29T21:54:31.093Z,16.20
2019-01-29T21:57:01.522Z,16.07
2019-01-29T21:59:33.359Z,16.13
2019-01-29T22:02:03.986Z,16.70
2019-01-29T22:04:34.463Z,15.33
2019-01-29T22:07:05.221Z,16.93
2019-01-29T22:09:35.902Z,16.17
2019-01-29T22:12:06.734Z,17.20
2019-01-29T22:14:37.353Z,17.20
2019-01-29T22:17:08.090Z,18.60
2019-01-29T22:19:38.655Z,16.70
2019-01-29T22:22:09.128Z,17.27
2019-01-29T22:24:39.707Z,19.03
2019-01-29T22:27:10.371Z,17.40
2019-01-29T22:29:40.988Z,18.20
2019-01-29T22:32:11.637Z,17.20
2019-01-29T22:34:42.055Z,17.37
2019-01-29T22:37:12.672Z,17.63
2019-01-29T22:39:43.253Z,17.80
2019-01-29T22:42:13.733Z,18.87
2019-01-29T22:44:44.234Z,16.90
2019-01-29T22:47:14.973Z,19.33
2019-01-29T22:49:45.679Z,16.47
2019-01-29T22:52:16.258Z,17.20
2019-01-29T22:54:46.753Z,16.10
2019-01-29T22:57:17.645Z,15.50
2019-01-29T22:59:48.114Z,16.33
2019-01-29T23:02:18.519Z,16.00
2019-01-29T23:04:49.255Z,15.97
2019-01-29T23:07:32.272Z,16.80
2019-01-29T23:10:03.187Z,14.17
2019-01-29T23:12:33.802Z,15.27
2019-01-29T23:15:05.037Z,15.10
2019-01-29T23:17:35.759Z,15.13
2019-01-29T23:20:08.191Z,15.63
2019-01-29T23:22:38.888Z,15.20
2019-01-29T23:25:10.334Z,14.90
2019-01-29T23:27:41.098Z,12.83
2019-01-29T23:30:15.518Z,15.73
2019-01-29T23:32:46.993Z,14.77
2019-01-29T23:35:17.579Z,16.03
2019-01-29T23:37:49.477Z,15.40
2019-01-29T23:40:20.141Z,14.60
2019-01-29T23:42:50.513Z,15.10
2019-01-29T23:45:21.979Z,15.37
2019-01-29T23:48:00.565Z,14.03
2019-01-29T23:50:32.383Z,13.63
2019-01-29T23:53:02.913Z,13.13
2019-01-29T23:55:33.489Z,14.37
2019-01-29T23:58:04.390Z,13.73
